sensor_id;sensor_type;location;lat;lon;timestamp;P1;durP1;ratioP1;P2;durP2;ratioP2
65373;SDS011;52070;53.760;9.678;2024-03-08T00:01:00;21.52;;;8.77;;
65373;SDS011;52070;53.760;9.678;2024-03-08T00:03:27;17.13;;;8.02;;
65373;SDS011;52070;53.760;9.678;2024-03-08T00:05:54;22.73;;;8.63;;
65373;SDS011;52070;53.760;9.678;2024-03-08T00:08:22;22.52;;;8.23;;
65373;SDS011;52070;53.760;9.678;2024-03-08T00:10:49;21.38;;;8.57;;
65373;SDS011;52070;53.760;9.678;2024-03-08T00:13:17;22.00;;;9.18;;
65373;SDS011;52070;53.760;9.678;2024-03-08T00:15:44;17.88;;;7.93;;
65373;SDS011;52070;53.760;9.678;2024-03-08T00:18:11;20.77;;;8.60;;
65373;SDS011;52070;53.760;9.678;2024-03-08T00:20:38;22.65;;;8.63;;
65373;SDS011;52070;53.760;9.678;2024-03-08T00:23:05;21.20;;;8.88;;
65373;SDS011;52070;53.760;9.678;2024-03-08T00:25:32;17.92;;;8.23;;
65373;SDS011;52070;53.760;9.678;2024-03-08T00:27:59;16.67;;;8.65;;
65373;SDS011;52070;53.760;9.678;2024-03-08T00:30:27;18.50;;;8.88;;
65373;SDS011;52070;53.760;9.678;2024-03-08T00:32:54;19.85;;;8.15;;
65373;SDS011;52070;53.760;9.678;2024-03-08T00:35:21;22.52;;;8.90;;
65373;SDS011;52070;53.760;9.678;2024-03-08T00:37:48;20.35;;;8.95;;
65373;SDS011;52070;53.760;9.678;2024-03-08T00:40:15;20.33;;;8.73;;
65373;SDS011;52070;53.760;9.678;2024-03-08T00:42:42;17.48;;;7.72;;
65373;SDS011;52070;53.760;9.678;2024-03-08T00:45:10;21.90;;;8.65;;
65373;SDS011;52070;53.760;9.678;2024-03-08T00:47:39;22.60;;;9.57;;
65373;SDS011;52070;53.760;9.678;2024-03-08T00:50:07;20.65;;;9.27;;
65373;SDS011;52070;53.760;9.678;2024-03-08T00:52:35;20.15;;;8.43;;
65373;SDS011;52070;53.760;9.678;2024-03-08T00:55:03;17.48;;;8.05;;
65373;SDS011;52070;53.760;9.678;2024-03-08T00:57:30;20.73;;;8.68;;
65373;SDS011;52070;53.760;9.678;2024-03-08T00:59:58;20.75;;;7.70;;
65373;SDS011;52070;53.760;9.678;2024-03-08T01:02:25;18.40;;;8.23;;
65373;SDS011;52070;53.760;9.678;2024-03-08T01:04:53;22.08;;;8.75;;
65373;SDS011;52070;53.760;9.678;2024-03-08T01:07:20;22.05;;;8.70;;
65373;SDS011;52070;53.760;9.678;2024-03-08T01:09:47;27.10;;;8.70;;
65373;SDS011;52070;53.760;9.678;2024-03-08T01:12:14;15.85;;;7.80;;
65373;SDS011;52070;53.760;9.678;2024-03-08T01:14:41;17.60;;;7.88;;
65373;SDS011;52070;53.760;9.678;2024-03-08T01:17:08;17.45;;;8.57;;
65373;SDS011;52070;53.760;9.678;2024-03-08T01:19:35;16.77;;;8.05;;
65373;SDS011;52070;53.760;9.678;2024-03-08T01:22:03;21.02;;;8.88;;
65373;SDS011;52070;53.760;9.678;2024-03-08T01:24:30;20.98;;;8.15;;
65373;SDS011;52070;53.760;9.678;2024-03-08T01:26:57;22.33;;;8.25;;
65373;SDS011;52070;53.760;9.678;2024-03-08T01:29:25;19.38;;;8.68;;
65373;SDS011;52070;53.760;9.678;2024-03-08T01:31:52;24.80;;;8.95;;
65373;SDS011;52070;53.760;9.678;2024-03-08T01:34:19;19.08;;;8.15;;
65373;SDS011;52070;53.760;9.678;2024-03-08T01:36:46;21.58;;;8.73;;
65373;SDS011;52070;53.760;9.678;2024-03-08T01:39:14;18.80;;;8.35;;
65373;SDS011;52070;53.760;9.678;2024-03-08T01:41:42;17.42;;;7.90;;
65373;SDS011;52070;53.760;9.678;2024-03-08T01:44:09;19.00;;;8.25;;
65373;SDS011;52070;53.760;9.678;2024-03-08T01:46:36;21.20;;;8.95;;
65373;SDS011;52070;53.760;9.678;2024-03-08T01:49:03;23.38;;;8.43;;
65373;SDS011;52070;53.760;9.678;2024-03-08T01:51:31;21.98;;;8.32;;
65373;SDS011;52070;53.760;9.678;2024-03-08T01:53:58;15.90;;;8.10;;
65373;SDS011;52070;53.760;9.678;2024-03-08T01:58:57;17.65;;;7.88;;
65373;SDS011;52070;53.760;9.678;2024-03-08T02:01:24;18.25;;;7.55;;
65373;SDS011;52070;53.760;9.678;2024-03-08T02:03:52;19.75;;;8.43;;
65373;SDS011;52070;53.760;9.678;2024-03-08T02:06:18;22.48;;;8.55;;
65373;SDS011;52070;53.760;9.678;2024-03-08T02:08:45;20.48;;;8.52;;
65373;SDS011;52070;53.760;9.678;2024-03-08T02:11:13;23.83;;;7.43;;
65373;SDS011;52070;53.760;9.678;2024-03-08T02:13:42;19.77;;;8.23;;
65373;SDS011;52070;53.760;9.678;2024-03-08T02:16:09;19.05;;;8.18;;
65373;SDS011;52070;53.760;9.678;2024-03-08T02:18:37;17.75;;;7.88;;
65373;SDS011;52070;53.760;9.678;2024-03-08T02:21:06;19.92;;;8.02;;
65373;SDS011;52070;53.760;9.678;2024-03-08T02:23:34;16.38;;;7.93;;
65373;SDS011;52070;53.760;9.678;2024-03-08T02:26:01;17.55;;;8.77;;
65373;SDS011;52070;53.760;9.678;2024-03-08T02:28:30;17.77;;;8.13;;
65373;SDS011;52070;53.760;9.678;2024-03-08T02:30:57;18.88;;;8.70;;
65373;SDS011;52070;53.760;9.678;2024-03-08T02:33:24;18.98;;;8.35;;
65373;SDS011;52070;53.760;9.678;2024-03-08T02:35:52;19.33;;;8.98;;
65373;SDS011;52070;53.760;9.678;2024-03-08T02:38:21;23.75;;;9.30;;
65373;SDS011;52070;53.760;9.678;2024-03-08T02:40:50;21.60;;;8.82;;
65373;SDS011;52070;53.760;9.678;2024-03-08T02:43:19;19.63;;;8.90;;
65373;SDS011;52070;53.760;9.678;2024-03-08T02:45:47;24.27;;;7.35;;
65373;SDS011;52070;53.760;9.678;2024-03-08T02:48:15;18.75;;;7.90;;
65373;SDS011;52070;53.760;9.678;2024-03-08T02:50:42;16.35;;;8.10;;
65373;SDS011;52070;53.760;9.678;2024-03-08T02:53:10;21.63;;;9.02;;
65373;SDS011;52070;53.760;9.678;2024-03-08T02:55:38;20.90;;;8.00;;
65373;SDS011;52070;53.760;9.678;2024-03-08T02:58:06;21.08;;;8.63;;
65373;SDS011;52070;53.760;9.678;2024-03-08T03:00:35;19.40;;;8.60;;
65373;SDS011;52070;53.760;9.678;2024-03-08T03:03:02;22.42;;;8.32;;
65373;SDS011;52070;53.760;9.678;2024-03-08T03:05:30;19.38;;;8.10;;
65373;SDS011;52070;53.760;9.678;2024-03-08T03:07:57;17.10;;;8.20;;
65373;SDS011;52070;53.760;9.678;2024-03-08T03:10:24;19.52;;;8.50;;
65373;SDS011;52070;53.760;9.678;2024-03-08T03:12:53;20.08;;;8.07;;
65373;SDS011;52070;53.760;9.678;2024-03-08T03:15:20;17.30;;;8.10;;
65373;SDS011;52070;53.760;9.678;2024-03-08T03:17:47;22.25;;;8.07;;
65373;SDS011;52070;53.760;9.678;2024-03-08T03:20:16;19.73;;;7.15;;
65373;SDS011;52070;53.760;9.678;2024-03-08T03:22:48;16.35;;;7.63;;
65373;SDS011;52070;53.760;9.678;2024-03-08T03:25:17;17.35;;;7.85;;
65373;SDS011;52070;53.760;9.678;2024-03-08T03:27:52;21.63;;;7.63;;
65373;SDS011;52070;53.760;9.678;2024-03-08T03:30:21;18.98;;;8.30;;
65373;SDS011;52070;53.760;9.678;2024-03-08T03:32:49;21.77;;;7.55;;
65373;SDS011;52070;53.760;9.678;2024-03-08T03:35:16;14.93;;;7.85;;
65373;SDS011;52070;53.760;9.678;2024-03-08T03:37:44;21.83;;;8.20;;
65373;SDS011;52070;53.760;9.678;2024-03-08T03:40:16;17.08;;;7.15;;
65373;SDS011;52070;53.760;9.678;2024-03-08T03:42:45;17.00;;;7.88;;
65373;SDS011;52070;53.760;9.678;2024-03-08T03:45:13;21.13;;;7.35;;
65373;SDS011;52070;53.760;9.678;2024-03-08T03:47:45;16.95;;;7.82;;
65373;SDS011;52070;53.760;9.678;2024-03-08T03:50:12;21.02;;;8.13;;
65373;SDS011;52070;53.760;9.678;2024-03-08T03:52:39;16.73;;;7.80;;
65373;SDS011;52070;53.760;9.678;2024-03-08T03:55:07;15.93;;;7.15;;
65373;SDS011;52070;53.760;9.678;2024-03-08T03:57:37;17.03;;;7.50;;
65373;SDS011;52070;53.760;9.678;2024-03-08T04:00:05;22.25;;;7.22;;
65373;SDS011;52070;53.760;9.678;2024-03-08T04:02:37;15.98;;;7.47;;
65373;SDS011;52070;53.760;9.678;2024-03-08T04:05:05;17.67;;;8.70;;
65373;SDS011;52070;53.760;9.678;2024-03-08T04:07:32;18.58;;;7.60;;
65373;SDS011;52070;53.760;9.678;2024-03-08T04:10:00;22.17;;;8.20;;
65373;SDS011;52070;53.760;9.678;2024-03-08T04:12:28;20.17;;;8.10;;
65373;SDS011;52070;53.760;9.678;2024-03-08T04:14:56;20.08;;;8.00;;
65373;SDS011;52070;53.760;9.678;2024-03-08T04:17:24;19.52;;;7.97;;
65373;SDS011;52070;53.760;9.678;2024-03-08T04:19:53;18.90;;;8.32;;
65373;SDS011;52070;53.760;9.678;2024-03-08T04:22:20;19.30;;;8.07;;
65373;SDS011;52070;53.760;9.678;2024-03-08T04:24:47;19.60;;;7.95;;
65373;SDS011;52070;53.760;9.678;2024-03-08T04:27:14;20.20;;;7.85;;
65373;SDS011;52070;53.760;9.678;2024-03-08T04:29:41;20.25;;;7.75;;
65373;SDS011;52070;53.760;9.678;2024-03-08T04:32:08;20.50;;;8.45;;
65373;SDS011;52070;53.760;9.678;2024-03-08T04:34:35;17.98;;;7.95;;
65373;SDS011;52070;53.760;9.678;2024-03-08T04:37:03;17.58;;;8.32;;
65373;SDS011;52070;53.760;9.678;2024-03-08T04:39:30;15.02;;;7.55;;
65373;SDS011;52070;53.760;9.678;2024-03-08T04:41:58;18.92;;;7.50;;
65373;SDS011;52070;53.760;9.678;2024-03-08T04:44:28;22.77;;;7.85;;
65373;SDS011;52070;53.760;9.678;2024-03-08T04:46:56;18.92;;;7.93;;
65373;SDS011;52070;53.760;9.678;2024-03-08T04:49:23;17.45;;;7.95;;
65373;SDS011;52070;53.760;9.678;2024-03-08T04:51:50;17.30;;;7.85;;
65373;SDS011;52070;53.760;9.678;2024-03-08T04:54:18;22.40;;;7.65;;
65373;SDS011;52070;53.760;9.678;2024-03-08T04:56:45;19.75;;;8.73;;
65373;SDS011;52070;53.760;9.678;2024-03-08T04:59:12;18.55;;;7.68;;
65373;SDS011;52070;53.760;9.678;2024-03-08T05:01:39;21.65;;;7.80;;
65373;SDS011;52070;53.760;9.678;2024-03-08T05:04:06;17.20;;;7.50;;
65373;SDS011;52070;53.760;9.678;2024-03-08T05:06:33;20.13;;;8.25;;
65373;SDS011;52070;53.760;9.678;2024-03-08T05:09:00;16.63;;;7.93;;
65373;SDS011;52070;53.760;9.678;2024-03-08T05:11:33;18.65;;;8.20;;
65373;SDS011;52070;53.760;9.678;2024-03-08T05:14:00;19.88;;;7.80;;
65373;SDS011;52070;53.760;9.678;2024-03-08T05:16:27;21.50;;;8.35;;
65373;SDS011;52070;53.760;9.678;2024-03-08T05:18:54;22.83;;;8.80;;
65373;SDS011;52070;53.760;9.678;2024-03-08T05:21:22;22.10;;;8.45;;
65373;SDS011;52070;53.760;9.678;2024-03-08T05:23:49;18.70;;;7.95;;
65373;SDS011;52070;53.760;9.678;2024-03-08T05:26:17;21.88;;;8.45;;
65373;SDS011;52070;53.760;9.678;2024-03-08T05:28:45;21.77;;;8.48;;
65373;SDS011;52070;53.760;9.678;2024-03-08T05:31:17;29.15;;;9.43;;
65373;SDS011;52070;53.760;9.678;2024-03-08T05:33:46;21.48;;;8.02;;
65373;SDS011;52070;53.760;9.678;2024-03-08T05:36:13;29.77;;;8.45;;
65373;SDS011;52070;53.760;9.678;2024-03-08T05:38:42;23.08;;;9.70;;
65373;SDS011;52070;53.760;9.678;2024-03-08T05:41:09;23.00;;;9.02;;
65373;SDS011;52070;53.760;9.678;2024-03-08T05:43:37;23.30;;;8.45;;
65373;SDS011;52070;53.760;9.678;2024-03-08T05:46:05;21.17;;;8.70;;
65373;SDS011;52070;53.760;9.678;2024-03-08T05:48:32;19.98;;;8.98;;
65373;SDS011;52070;53.760;9.678;2024-03-08T05:50:59;22.20;;;8.70;;
65373;SDS011;52070;53.760;9.678;2024-03-08T05:53:27;21.38;;;8.20;;
65373;SDS011;52070;53.760;9.678;2024-03-08T05:55:57;21.42;;;8.25;;
65373;SDS011;52070;53.760;9.678;2024-03-08T05:58:24;19.42;;;8.05;;
65373;SDS011;52070;53.760;9.678;2024-03-08T06:00:51;19.17;;;8.50;;
65373;SDS011;52070;53.760;9.678;2024-03-08T06:03:19;18.77;;;8.13;;
65373;SDS011;52070;53.760;9.678;2024-03-08T06:05:47;22.10;;;8.82;;
65373;SDS011;52070;53.760;9.678;2024-03-08T06:08:14;23.08;;;8.35;;
65373;SDS011;52070;53.760;9.678;2024-03-08T06:10:42;24.17;;;9.45;;
65373;SDS011;52070;53.760;9.678;2024-03-08T06:13:08;17.98;;;8.05;;
65373;SDS011;52070;53.760;9.678;2024-03-08T06:15:37;20.17;;;8.77;;
65373;SDS011;52070;53.760;9.678;2024-03-08T06:18:05;22.30;;;9.23;;
65373;SDS011;52070;53.760;9.678;2024-03-08T06:20:34;28.55;;;10.30;;
65373;SDS011;52070;53.760;9.678;2024-03-08T06:23:01;19.80;;;8.98;;
65373;SDS011;52070;53.760;9.678;2024-03-08T06:25:28;22.55;;;8.55;;
65373;SDS011;52070;53.760;9.678;2024-03-08T06:27:55;22.77;;;9.63;;
65373;SDS011;52070;53.760;9.678;2024-03-08T06:30:22;23.88;;;9.48;;
65373;SDS011;52070;53.760;9.678;2024-03-08T06:32:49;23.35;;;9.15;;
65373;SDS011;52070;53.760;9.678;2024-03-08T06:35:17;20.75;;;8.88;;
65373;SDS011;52070;53.760;9.678;2024-03-08T06:37:47;24.10;;;10.13;;
65373;SDS011;52070;53.760;9.678;2024-03-08T06:40:14;26.52;;;9.50;;
65373;SDS011;52070;53.760;9.678;2024-03-08T06:42:41;28.35;;;9.52;;
65373;SDS011;52070;53.760;9.678;2024-03-08T06:45:08;24.13;;;8.75;;
65373;SDS011;52070;53.760;9.678;2024-03-08T06:47:36;19.15;;;8.65;;
65373;SDS011;52070;53.760;9.678;2024-03-08T06:50:03;23.60;;;8.80;;
65373;SDS011;52070;53.760;9.678;2024-03-08T06:52:31;21.45;;;9.07;;
65373;SDS011;52070;53.760;9.678;2024-03-08T06:55:00;23.75;;;9.05;;
65373;SDS011;52070;53.760;9.678;2024-03-08T06:57:27;21.98;;;9.18;;
65373;SDS011;52070;53.760;9.678;2024-03-08T06:59:55;24.02;;;9.15;;
65373;SDS011;52070;53.760;9.678;2024-03-08T07:02:22;24.42;;;9.95;;
65373;SDS011;52070;53.760;9.678;2024-03-08T07:04:50;25.88;;;9.55;;
65373;SDS011;52070;53.760;9.678;2024-03-08T07:07:18;25.40;;;10.48;;
65373;SDS011;52070;53.760;9.678;2024-03-08T07:09:46;29.25;;;11.00;;
65373;SDS011;52070;53.760;9.678;2024-03-08T07:12:16;23.45;;;10.13;;
65373;SDS011;52070;53.760;9.678;2024-03-08T07:14:43;23.95;;;9.88;;
65373;SDS011;52070;53.760;9.678;2024-03-08T07:17:11;31.30;;;11.02;;
65373;SDS011;52070;53.760;9.678;2024-03-08T07:19:38;24.98;;;10.18;;
65373;SDS011;52070;53.760;9.678;2024-03-08T07:22:05;27.20;;;11.40;;
65373;SDS011;52070;53.760;9.678;2024-03-08T07:24:34;24.45;;;10.50;;
65373;SDS011;52070;53.760;9.678;2024-03-08T07:27:22;23.58;;;10.65;;
65373;SDS011;52070;53.760;9.678;2024-03-08T07:29:49;31.70;;;10.35;;
65373;SDS011;52070;53.760;9.678;2024-03-08T07:32:16;24.50;;;10.43;;
65373;SDS011;52070;53.760;9.678;2024-03-08T07:34:47;24.80;;;11.50;;
65373;SDS011;52070;53.760;9.678;2024-03-08T07:37:16;34.63;;;11.32;;
65373;SDS011;52070;53.760;9.678;2024-03-08T07:39:43;28.63;;;10.90;;
65373;SDS011;52070;53.760;9.678;2024-03-08T07:42:10;31.77;;;11.88;;
65373;SDS011;52070;53.760;9.678;2024-03-08T07:44:39;27.33;;;11.50;;
65373;SDS011;52070;53.760;9.678;2024-03-08T07:47:06;32.17;;;12.15;;
65373;SDS011;52070;53.760;9.678;2024-03-08T07:49:35;30.75;;;11.55;;
65373;SDS011;52070;53.760;9.678;2024-03-08T07:52:02;38.67;;;13.75;;
65373;SDS011;52070;53.760;9.678;2024-03-08T07:54:32;33.80;;;12.32;;
65373;SDS011;52070;53.760;9.678;2024-03-08T07:57:00;35.80;;;12.07;;
65373;SDS011;52070;53.760;9.678;2024-03-08T07:59:28;28.10;;;12.70;;
65373;SDS011;52070;53.760;9.678;2024-03-08T08:01:57;34.67;;;13.50;;
65373;SDS011;52070;53.760;9.678;2024-03-08T08:04:24;28.48;;;12.77;;
65373;SDS011;52070;53.760;9.678;2024-03-08T08:06:52;36.50;;;13.55;;
65373;SDS011;52070;53.760;9.678;2024-03-08T08:09:20;32.10;;;13.15;;
65373;SDS011;52070;53.760;9.678;2024-03-08T08:11:54;32.25;;;13.63;;
65373;SDS011;52070;53.760;9.678;2024-03-08T08:14:21;31.67;;;13.13;;
65373;SDS011;52070;53.760;9.678;2024-03-08T08:16:48;31.80;;;13.68;;
65373;SDS011;52070;53.760;9.678;2024-03-08T08:19:19;36.63;;;13.20;;
65373;SDS011;52070;53.760;9.678;2024-03-08T08:21:46;32.13;;;12.60;;
65373;SDS011;52070;53.760;9.678;2024-03-08T08:24:13;30.38;;;12.82;;
65373;SDS011;52070;53.760;9.678;2024-03-08T08:26:40;32.40;;;13.35;;
65373;SDS011;52070;53.760;9.678;2024-03-08T08:29:07;32.78;;;13.25;;
65373;SDS011;52070;53.760;9.678;2024-03-08T08:31:34;37.08;;;14.00;;
65373;SDS011;52070;53.760;9.678;2024-03-08T08:34:01;33.67;;;13.23;;
65373;SDS011;52070;53.760;9.678;2024-03-08T08:36:30;29.45;;;13.30;;
65373;SDS011;52070;53.760;9.678;2024-03-08T08:38:57;29.48;;;13.00;;
65373;SDS011;52070;53.760;9.678;2024-03-08T08:41:25;39.13;;;13.43;;
65373;SDS011;52070;53.760;9.678;2024-03-08T08:43:52;32.22;;;12.05;;
65373;SDS011;52070;53.760;9.678;2024-03-08T08:46:20;34.85;;;13.30;;
65373;SDS011;52070;53.760;9.678;2024-03-08T08:48:47;42.60;;;14.75;;
65373;SDS011;52070;53.760;9.678;2024-03-08T08:51:14;34.33;;;14.23;;
65373;SDS011;52070;53.760;9.678;2024-03-08T08:53:43;35.33;;;14.30;;
65373;SDS011;52070;53.760;9.678;2024-03-08T08:56:11;31.77;;;13.27;;
65373;SDS011;52070;53.760;9.678;2024-03-08T08:58:38;28.00;;;12.10;;
65373;SDS011;52070;53.760;9.678;2024-03-08T09:01:06;24.70;;;11.60;;
65373;SDS011;52070;53.760;9.678;2024-03-08T09:03:33;27.60;;;12.23;;
65373;SDS011;52070;53.760;9.678;2024-03-08T09:06:02;23.48;;;12.07;;
65373;SDS011;52070;53.760;9.678;2024-03-08T09:08:30;26.02;;;12.52;;
65373;SDS011;52070;53.760;9.678;2024-03-08T09:10:58;32.42;;;12.43;;
65373;SDS011;52070;53.760;9.678;2024-03-08T09:13:26;29.55;;;12.75;;
65373;SDS011;52070;53.760;9.678;2024-03-08T09:15:53;28.80;;;12.50;;
65373;SDS011;52070;53.760;9.678;2024-03-08T09:18:20;31.40;;;12.07;;
65373;SDS011;52070;53.760;9.678;2024-03-08T09:20:47;27.63;;;11.50;;
65373;SDS011;52070;53.760;9.678;2024-03-08T09:23:14;30.60;;;11.75;;
65373;SDS011;52070;53.760;9.678;2024-03-08T09:25:42;25.20;;;11.85;;
65373;SDS011;52070;53.760;9.678;2024-03-08T09:28:10;26.45;;;12.50;;
65373;SDS011;52070;53.760;9.678;2024-03-08T09:30:38;26.40;;;12.18;;
65373;SDS011;52070;53.760;9.678;2024-03-08T09:33:05;28.15;;;12.45;;
65373;SDS011;52070;53.760;9.678;2024-03-08T09:35:32;26.45;;;11.48;;
65373;SDS011;52070;53.760;9.678;2024-03-08T09:37:59;26.75;;;11.40;;
65373;SDS011;52070;53.760;9.678;2024-03-08T09:40:26;27.10;;;11.50;;
65373;SDS011;52070;53.760;9.678;2024-03-08T09:42:53;30.13;;;12.75;;
65373;SDS011;52070;53.760;9.678;2024-03-08T09:45:22;27.77;;;11.77;;
65373;SDS011;52070;53.760;9.678;2024-03-08T09:47:50;27.65;;;11.80;;
65373;SDS011;52070;53.760;9.678;2024-03-08T09:50:18;27.83;;;12.73;;
65373;SDS011;52070;53.760;9.678;2024-03-08T09:52:46;25.15;;;11.35;;
65373;SDS011;52070;53.760;9.678;2024-03-08T09:55:14;26.40;;;13.02;;
65373;SDS011;52070;53.760;9.678;2024-03-08T09:57:43;29.02;;;11.90;;
65373;SDS011;52070;53.760;9.678;2024-03-08T10:00:33;22.73;;;10.35;;
65373;SDS011;52070;53.760;9.678;2024-03-08T10:03:00;25.58;;;11.60;;
65373;SDS011;52070;53.760;9.678;2024-03-08T10:05:27;23.55;;;10.80;;
65373;SDS011;52070;53.760;9.678;2024-03-08T10:07:55;24.88;;;10.68;;
65373;SDS011;52070;53.760;9.678;2024-03-08T10:10:22;24.55;;;11.93;;
65373;SDS011;52070;53.760;9.678;2024-03-08T10:12:49;21.75;;;10.90;;
65373;SDS011;52070;53.760;9.678;2024-03-08T10:15:16;21.67;;;10.70;;
65373;SDS011;52070;53.760;9.678;2024-03-08T10:17:44;22.10;;;11.05;;
65373;SDS011;52070;53.760;9.678;2024-03-08T10:20:14;20.75;;;11.30;;
65373;SDS011;52070;53.760;9.678;2024-03-08T10:25:09;23.60;;;10.10;;
65373;SDS011;52070;53.760;9.678;2024-03-08T10:27:37;25.42;;;11.23;;
65373;SDS011;52070;53.760;9.678;2024-03-08T10:30:06;27.17;;;11.27;;
65373;SDS011;52070;53.760;9.678;2024-03-08T10:32:37;21.17;;;11.02;;
65373;SDS011;52070;53.760;9.678;2024-03-08T10:35:08;23.20;;;11.90;;
65373;SDS011;52070;53.760;9.678;2024-03-08T10:37:36;22.88;;;11.00;;
65373;SDS011;52070;53.760;9.678;2024-03-08T10:40:10;22.40;;;11.30;;
65373;SDS011;52070;53.760;9.678;2024-03-08T10:42:46;23.85;;;10.90;;
65373;SDS011;52070;53.760;9.678;2024-03-08T10:45:19;20.42;;;9.98;;
65373;SDS011;52070;53.760;9.678;2024-03-08T10:47:54;19.95;;;10.13;;
65373;SDS011;52070;53.760;9.678;2024-03-08T10:50:42;20.75;;;10.90;;
65373;SDS011;52070;53.760;9.678;2024-03-08T10:53:11;24.83;;;11.60;;
65373;SDS011;52070;53.760;9.678;2024-03-08T10:55:39;22.02;;;10.63;;
65373;SDS011;52070;53.760;9.678;2024-03-08T10:58:07;20.42;;;10.50;;
65373;SDS011;52070;53.760;9.678;2024-03-08T11:00:35;26.98;;;10.75;;
65373;SDS011;52070;53.760;9.678;2024-03-08T11:03:02;23.48;;;11.40;;
65373;SDS011;52070;53.760;9.678;2024-03-08T11:05:36;18.42;;;10.60;;
65373;SDS011;52070;53.760;9.678;2024-03-08T11:08:08;23.67;;;10.63;;
65373;SDS011;52070;53.760;9.678;2024-03-08T11:10:48;22.17;;;10.77;;
65373;SDS011;52070;53.760;9.678;2024-03-08T11:13:32;22.88;;;11.15;;
65373;SDS011;52070;53.760;9.678;2024-03-08T11:15:59;21.38;;;10.40;;
65373;SDS011;52070;53.760;9.678;2024-03-08T11:18:26;24.67;;;10.77;;
65373;SDS011;52070;53.760;9.678;2024-03-08T11:20:53;18.25;;;9.85;;
65373;SDS011;52070;53.760;9.678;2024-03-08T11:23:23;19.67;;;10.00;;
65373;SDS011;52070;53.760;9.678;2024-03-08T11:28:19;18.15;;;9.70;;
65373;SDS011;52070;53.760;9.678;2024-03-08T11:31:21;21.20;;;11.45;;
65373;SDS011;52070;53.760;9.678;2024-03-08T11:33:50;26.83;;;11.32;;
65373;SDS011;52070;53.760;9.678;2024-03-08T11:36:22;20.13;;;10.25;;
65373;SDS011;52070;53.760;9.678;2024-03-08T11:38:51;23.85;;;10.38;;
65373;SDS011;52070;53.760;9.678;2024-03-08T11:41:21;20.70;;;10.23;;
65373;SDS011;52070;53.760;9.678;2024-03-08T11:43:49;21.10;;;10.82;;
65373;SDS011;52070;53.760;9.678;2024-03-08T11:46:30;22.15;;;10.02;;
65373;SDS011;52070;53.760;9.678;2024-03-08T11:48:57;19.35;;;10.13;;
65373;SDS011;52070;53.760;9.678;2024-03-08T11:51:26;24.83;;;11.10;;
65373;SDS011;52070;53.760;9.678;2024-03-08T11:53:54;22.38;;;11.18;;
65373;SDS011;52070;53.760;9.678;2024-03-08T11:56:21;20.40;;;10.32;;
65373;SDS011;52070;53.760;9.678;2024-03-08T11:58:52;19.17;;;9.65;;
65373;SDS011;52070;53.760;9.678;2024-03-08T12:01:19;23.70;;;10.77;;
65373;SDS011;52070;53.760;9.678;2024-03-08T12:03:52;20.10;;;10.35;;
65373;SDS011;52070;53.760;9.678;2024-03-08T12:06:19;25.45;;;11.05;;
65373;SDS011;52070;53.760;9.678;2024-03-08T12:08:46;25.10;;;10.60;;
65373;SDS011;52070;53.760;9.678;2024-03-08T12:11:16;21.00;;;10.90;;
65373;SDS011;52070;53.760;9.678;2024-03-08T12:13:44;20.88;;;10.60;;
65373;SDS011;52070;53.760;9.678;2024-03-08T12:16:12;20.90;;;10.52;;
65373;SDS011;52070;53.760;9.678;2024-03-08T12:18:39;22.77;;;9.77;;
65373;SDS011;52070;53.760;9.678;2024-03-08T12:21:06;19.45;;;9.75;;
65373;SDS011;52070;53.760;9.678;2024-03-08T12:23:42;19.10;;;9.90;;
65373;SDS011;52070;53.760;9.678;2024-03-08T12:26:11;15.65;;;8.95;;
65373;SDS011;52070;53.760;9.678;2024-03-08T12:28:41;16.90;;;9.15;;
65373;SDS011;52070;53.760;9.678;2024-03-08T12:31:11;18.25;;;8.52;;
65373;SDS011;52070;53.760;9.678;2024-03-08T12:33:46;19.97;;;9.73;;
65373;SDS011;52070;53.760;9.678;2024-03-08T12:36:15;17.75;;;10.05;;
65373;SDS011;52070;53.760;9.678;2024-03-08T12:38:43;17.58;;;9.65;;
65373;SDS011;52070;53.760;9.678;2024-03-08T12:41:13;21.48;;;9.77;;
65373;SDS011;52070;53.760;9.678;2024-03-08T12:43:41;17.67;;;9.05;;
65373;SDS011;52070;53.760;9.678;2024-03-08T12:46:13;15.95;;;8.52;;
65373;SDS011;52070;53.760;9.678;2024-03-08T12:48:40;18.65;;;9.75;;
65373;SDS011;52070;53.760;9.678;2024-03-08T12:51:07;17.02;;;9.43;;
65373;SDS011;52070;53.760;9.678;2024-03-08T12:53:34;17.70;;;9.15;;
65373;SDS011;52070;53.760;9.678;2024-03-08T12:56:01;19.95;;;9.90;;
65373;SDS011;52070;53.760;9.678;2024-03-08T12:58:33;16.17;;;9.48;;
65373;SDS011;52070;53.760;9.678;2024-03-08T13:01:01;17.67;;;9.02;;
65373;SDS011;52070;53.760;9.678;2024-03-08T13:03:30;19.30;;;9.50;;
65373;SDS011;52070;53.760;9.678;2024-03-08T13:05:57;19.42;;;9.95;;
65373;SDS011;52070;53.760;9.678;2024-03-08T13:08:24;22.65;;;10.10;;
65373;SDS011;52070;53.760;9.678;2024-03-08T13:10:53;20.92;;;9.73;;
65373;SDS011;52070;53.760;9.678;2024-03-08T13:13:20;15.00;;;8.25;;
65373;SDS011;52070;53.760;9.678;2024-03-08T13:15:48;19.15;;;8.48;;
65373;SDS011;52070;53.760;9.678;2024-03-08T13:18:16;18.58;;;9.13;;
65373;SDS011;52070;53.760;9.678;2024-03-08T13:20:43;17.40;;;9.35;;
65373;SDS011;52070;53.760;9.678;2024-03-08T13:23:14;18.08;;;8.93;;
65373;SDS011;52070;53.760;9.678;2024-03-08T13:25:43;15.93;;;8.50;;
65373;SDS011;52070;53.760;9.678;2024-03-08T13:28:11;15.65;;;8.40;;
65373;SDS011;52070;53.760;9.678;2024-03-08T13:30:38;17.85;;;8.50;;
65373;SDS011;52070;53.760;9.678;2024-03-08T13:33:05;19.17;;;8.85;;
65373;SDS011;52070;53.760;9.678;2024-03-08T13:35:33;17.33;;;8.60;;
65373;SDS011;52070;53.760;9.678;2024-03-08T13:38:00;16.88;;;8.52;;
65373;SDS011;52070;53.760;9.678;2024-03-08T13:40:29;27.60;;;9.27;;
65373;SDS011;52070;53.760;9.678;2024-03-08T13:42:56;15.73;;;8.25;;
65373;SDS011;52070;53.760;9.678;2024-03-08T13:45:26;17.05;;;9.38;;
65373;SDS011;52070;53.760;9.678;2024-03-08T13:47:53;17.83;;;8.73;;
65373;SDS011;52070;53.760;9.678;2024-03-08T13:50:20;17.55;;;8.98;;
65373;SDS011;52070;53.760;9.678;2024-03-08T13:52:49;17.85;;;8.95;;
65373;SDS011;52070;53.760;9.678;2024-03-08T13:55:16;16.25;;;8.68;;
65373;SDS011;52070;53.760;9.678;2024-03-08T13:57:43;16.77;;;8.93;;
65373;SDS011;52070;53.760;9.678;2024-03-08T14:00:12;18.27;;;9.00;;
65373;SDS011;52070;53.760;9.678;2024-03-08T14:02:40;16.48;;;8.60;;
65373;SDS011;52070;53.760;9.678;2024-03-08T14:05:07;19.88;;;8.80;;
65373;SDS011;52070;53.760;9.678;2024-03-08T14:07:35;17.80;;;8.57;;
65373;SDS011;52070;53.760;9.678;2024-03-08T14:10:04;17.70;;;8.80;;
65373;SDS011;52070;53.760;9.678;2024-03-08T14:12:32;14.98;;;8.32;;
65373;SDS011;52070;53.760;9.678;2024-03-08T14:15:00;17.30;;;8.02;;
65373;SDS011;52070;53.760;9.678;2024-03-08T14:17:27;15.43;;;8.85;;
65373;SDS011;52070;53.760;9.678;2024-03-08T14:19:56;16.52;;;8.07;;
65373;SDS011;52070;53.760;9.678;2024-03-08T14:22:24;16.80;;;7.85;;
65373;SDS011;52070;53.760;9.678;2024-03-08T14:24:51;15.27;;;9.10;;
65373;SDS011;52070;53.760;9.678;2024-03-08T14:27:22;19.98;;;8.93;;
65373;SDS011;52070;53.760;9.678;2024-03-08T14:29:49;17.58;;;8.70;;
65373;SDS011;52070;53.760;9.678;2024-03-08T14:32:16;17.77;;;8.98;;
65373;SDS011;52070;53.760;9.678;2024-03-08T14:34:45;18.70;;;9.20;;
65373;SDS011;52070;53.760;9.678;2024-03-08T14:37:13;20.48;;;10.15;;
65373;SDS011;52070;53.760;9.678;2024-03-08T14:39:40;20.10;;;9.52;;
65373;SDS011;52070;53.760;9.678;2024-03-08T14:42:07;18.58;;;10.75;;
65373;SDS011;52070;53.760;9.678;2024-03-08T14:44:40;21.02;;;10.80;;